createdAt,value
2023-04-14T05:03:07.177Z,500.00
2023-04-14T05:04:08.048Z,500.00
2023-04-14T05:05:08.040Z,500.00
2023-04-14T05:06:08.067Z,500.00
2023-04-14T05:07:07.109Z,500.00
2023-04-14T05:08:08.139Z,500.00
2023-04-14T05:09:08.176Z,400.00
2023-04-14T05:10:08.214Z,400.00
2023-04-14T05:11:07.202Z,400.00
2023-04-14T05:12:08.191Z,400.00
2023-04-14T05:13:07.250Z,400.00
2023-04-14T05:14:07.311Z,400.00
2023-04-14T05:15:08.386Z,400.00
2023-04-14T05:16:08.465Z,400.00
2023-04-14T05:17:07.489Z,400.00
2023-04-14T05:18:08.562Z,400.00
2023-04-14T05:19:08.580Z,400.00
2023-04-14T05:20:08.649Z,400.00
2023-04-14T05:21:07.660Z,400.00
2023-04-14T05:22:07.702Z,420.00
2023-04-14T05:23:08.746Z,454.00
2023-04-14T05:24:07.788Z,496.00
2023-04-14T05:25:08.839Z,507.00
2023-04-14T05:26:31.274Z,502.00
2023-04-14T05:28:07.867Z,493.00
2023-04-14T05:29:08.864Z,476.00
2023-04-14T05:30:08.864Z,469.00
2023-04-14T05:31:08.864Z,458.00
2023-04-14T05:32:08.840Z,447.00
2023-04-14T05:33:07.872Z,497.00
2023-04-14T05:34:08.891Z,503.00
2023-04-14T05:35:07.839Z,500.00
2023-04-14T05:36:08.799Z,506.00
2023-04-14T05:37:08.814Z,500.00
2023-04-14T05:38:08.791Z,506.00
2023-04-14T05:39:08.804Z,503.00
2023-04-14T05:40:08.792Z,501.00
2023-04-14T05:41:08.795Z,502.00
2023-04-14T05:42:07.756Z,505.00
2023-04-14T05:43:08.754Z,503.00
2023-04-14T05:44:07.745Z,503.00
2023-04-14T05:45:07.742Z,501.00
2023-04-14T05:46:07.842Z,505.00
2023-04-14T05:47:07.746Z,508.00
2023-04-14T05:48:08.813Z,504.00
2023-04-14T05:49:07.728Z,503.00
2023-04-14T05:50:09.122Z,501.00
2023-04-14T05:51:07.713Z,507.00
2023-04-14T05:52:07.696Z,501.00
2023-04-14T05:53:08.733Z,506.00
2023-04-14T05:54:07.778Z,502.00
2023-04-14T05:55:07.816Z,504.00
2023-04-14T05:56:08.851Z,500.00
2023-04-14T05:57:08.884Z,505.00
2023-04-14T05:58:07.934Z,504.00
2023-04-14T05:59:07.955Z,505.00
2023-04-14T06:00:08.986Z,500.00
2023-04-14T06:01:09.102Z,504.00
2023-04-14T06:02:08.217Z,505.00
2023-04-14T06:03:09.291Z,500.00
2023-04-14T06:04:08.922Z,503.00
2023-04-14T06:05:09.283Z,504.00
2023-04-14T06:06:09.239Z,506.00
2023-04-14T06:07:08.317Z,508.00
2023-04-14T06:08:08.293Z,500.00
2023-04-14T06:09:08.312Z,507.00
2023-04-14T06:10:08.347Z,505.00
2023-04-14T06:11:09.365Z,505.00
2023-04-14T06:12:09.404Z,502.00
2023-04-14T06:13:09.436Z,509.00
2023-04-14T06:14:09.482Z,506.00
2023-04-14T06:15:09.502Z,502.00
2023-04-14T06:16:09.569Z,504.00
2023-04-14T06:17:09.586Z,501.00
2023-04-14T06:18:09.632Z,502.00
2023-04-14T06:19:09.642Z,508.00
2023-04-14T06:20:09.670Z,505.00
2023-04-14T06:21:09.716Z,506.00
2023-04-14T06:22:08.785Z,511.00
2023-04-14T06:23:09.763Z,500.00
2023-04-14T06:24:08.796Z,505.00
2023-04-14T06:25:08.836Z,505.00
2023-04-14T06:26:09.864Z,508.00
2023-04-14T06:27:08.902Z,503.00
2023-04-14T06:28:08.934Z,504.00
2023-04-14T06:29:09.952Z,507.00
2023-04-14T06:30:10.008Z,508.00
2023-04-14T06:31:10.034Z,504.00
2023-04-14T06:32:10.161Z,503.00
2023-04-14T06:33:10.105Z,504.00
2023-04-14T06:34:09.120Z,500.00
2023-04-14T06:35:16.464Z,512.00
2023-04-14T06:36:10.132Z,512.00
2023-04-14T06:37:10.121Z,511.00
2023-04-14T06:38:10.133Z,506.00
2023-04-14T06:39:09.112Z,500.00
2023-04-14T06:40:09.129Z,507.00
2023-04-14T06:41:10.098Z,509.00
2023-04-14T06:42:10.083Z,509.00
2023-04-14T06:43:09.073Z,510.00
2023-04-14T06:44:10.079Z,516.00
2023-04-14T06:45:10.094Z,505.00
2023-04-14T06:46:10.217Z,505.00
2023-04-14T06:47:09.051Z,511.00
2023-04-14T06:48:10.081Z,502.00
2023-04-14T06:49:09.032Z,505.00
2023-04-14T06:50:09.028Z,506.00
2023-04-14T06:51:10.015Z,511.00
2023-04-14T06:52:10.014Z,507.00
2023-04-14T06:53:09.003Z,501.00
2023-04-14T06:54:10.025Z,511.00
2023-04-14T06:55:10.027Z,505.00
2023-04-14T06:56:09.116Z,500.00
2023-04-14T06:57:10.104Z,507.00
2023-04-14T06:58:09.138Z,506.00
2023-04-14T06:59:10.157Z,504.00
2023-04-14T07:00:10.150Z,507.00
2023-04-14T07:01:10.240Z,509.00
2023-04-14T07:02:10.281Z,512.00
2023-04-14T07:03:10.312Z,507.00
2023-04-14T07:04:10.310Z,506.00
2023-04-14T07:05:10.402Z,509.00
2023-04-14T07:06:09.290Z,515.00
2023-04-14T07:07:10.310Z,510.00
2023-04-14T07:08:09.308Z,505.00
2023-04-14T07:09:09.350Z,509.00
2023-04-14T07:10:09.487Z,511.00
2023-04-14T07:11:10.410Z,511.00
2023-04-14T07:12:09.400Z,511.00
2023-04-14T07:13:10.416Z,504.00
2023-04-14T07:14:09.441Z,506.00
2023-04-14T07:15:10.466Z,508.00
2023-04-14T07:16:09.610Z,512.00
2023-04-14T07:17:09.500Z,508.00
2023-04-14T07:18:10.576Z,509.00
2023-04-14T07:19:10.534Z,505.00
2023-04-14T07:20:10.570Z,505.00
2023-04-14T07:21:09.585Z,505.00
2023-04-14T07:22:10.596Z,508.00
2023-04-14T07:23:09.605Z,507.00
2023-04-14T07:24:09.616Z,509.00
2023-04-14T07:25:09.644Z,506.00
2023-04-14T07:26:09.674Z,507.00
2023-04-14T07:27:09.661Z,508.00
2023-04-14T07:28:10.690Z,504.00
2023-04-14T07:29:10.702Z,512.00
2023-04-14T07:30:09.722Z,511.00
2023-04-14T07:31:09.873Z,505.00
2023-04-14T07:32:10.739Z,506.00
2023-04-14T07:33:09.801Z,509.00
2023-04-14T07:34:10.779Z,511.00
2023-04-14T07:35:09.792Z,508.00
2023-04-14T07:36:10.833Z,502.00
2023-04-14T07:37:10.834Z,514.00
2023-04-14T07:38:09.863Z,505.00
2023-04-14T07:39:10.883Z,506.00
2023-04-14T07:40:09.905Z,504.00
2023-04-14T07:41:09.928Z,508.00
2023-04-14T07:42:09.947Z,505.00
2023-04-14T07:43:10.943Z,504.00
2023-04-14T07:44:10.957Z,509.00
2023-04-14T07:45:10.975Z,507.00
2023-04-14T07:46:11.027Z,508.00
2023-04-14T07:47:10.998Z,511.00
2023-04-14T07:48:11.032Z,516.00
2023-04-14T07:49:11.042Z,516.00
2023-04-14T07:50:11.049Z,514.00
2023-04-14T07:51:11.128Z,510.00
2023-04-14T07:52:11.071Z,516.00
2023-04-14T07:53:11.099Z,521.00
2023-04-14T07:54:10.130Z,513.00
2023-04-14T07:55:11.144Z,515.00
2023-04-14T07:56:11.185Z,522.00
2023-04-14T07:57:10.215Z,508.00
2023-04-14T07:58:15.108Z,520.00
2023-04-14T07:59:11.227Z,520.00
2023-04-14T08:00:11.217Z,520.00
2023-04-14T08:01:11.210Z,519.00
2023-04-14T08:02:10.301Z,519.00
2023-04-14T08:03:11.477Z,517.00
2023-04-14T08:04:11.530Z,517.00
2023-04-14T08:05:11.217Z,517.00
2023-04-14T08:06:10.196Z,524.00
2023-04-14T08:07:10.183Z,517.00
2023-04-14T08:08:10.212Z,515.00
2023-04-14T08:09:11.161Z,517.00
2023-04-14T08:10:11.141Z,511.00
2023-04-14T08:11:11.144Z,511.00
2023-04-14T08:12:11.136Z,520.00
2023-04-14T08:13:11.124Z,518.00
2023-04-14T08:14:11.147Z,532.00
2023-04-14T08:15:10.127Z,523.00
2023-04-14T08:16:10.190Z,519.00
2023-04-14T08:17:11.103Z,517.00
2023-04-14T08:18:11.097Z,514.00
2023-04-14T08:19:11.096Z,510.00
2023-04-14T08:20:11.082Z,522.00
2023-04-14T08:21:11.084Z,516.00
2023-04-14T08:22:11.067Z,509.00
2023-04-14T08:23:10.079Z,508.00
2023-04-14T08:24:10.053Z,507.00
2023-04-14T08:25:11.056Z,509.00
2023-04-14T08:26:10.038Z,509.00
2023-04-14T08:27:11.057Z,509.00
2023-04-14T08:28:10.030Z,513.00
2023-04-14T08:29:11.037Z,576.00
2023-04-14T08:30:11.569Z,534.00
2023-04-14T08:31:11.186Z,511.00
2023-04-14T08:32:11.201Z,501.00
2023-04-14T08:33:11.266Z,500.00
2023-04-14T08:34:11.239Z,508.00
2023-04-14T08:35:39.930Z,504.00
2023-04-14T08:36:11.304Z,505.00
2023-04-14T08:37:10.270Z,506.00
2023-04-14T08:38:11.463Z,507.00
2023-04-14T08:39:10.274Z,510.00
2023-04-14T08:40:10.261Z,512.00
2023-04-14T08:41:10.227Z,503.00
2023-04-14T08:42:10.662Z,500.00
2023-04-14T08:43:13.839Z,520.00
2023-04-14T08:44:10.235Z,521.00
2023-04-14T08:45:11.206Z,525.00
2023-04-14T08:46:11.337Z,531.00
2023-04-14T08:47:11.185Z,542.00
2023-04-14T08:48:11.180Z,545.00
2023-04-14T08:49:11.290Z,541.00
2023-04-14T08:50:11.193Z,544.00
2023-04-14T08:51:11.276Z,548.00
2023-04-14T08:52:11.240Z,544.00
2023-04-14T08:53:10.265Z,541.00
2023-04-14T08:54:11.271Z,547.00
2023-04-14T08:55:10.280Z,555.00
2023-04-14T08:56:11.308Z,551.00
2023-04-14T08:57:11.297Z,550.00
2023-04-14T08:58:11.433Z,554.00
2023-04-14T08:59:11.391Z,555.00
2023-04-14T09:00:10.391Z,564.00
2023-04-14T09:01:11.779Z,567.00
2023-04-14T09:02:10.480Z,565.00
2023-04-14T09:03:11.647Z,580.00
2023-04-14T09:04:11.639Z,581.00
2023-04-14T09:05:11.391Z,584.00
2023-04-14T09:06:11.441Z,587.00
2023-04-14T09:07:11.424Z,595.00
2023-04-14T09:08:11.426Z,593.00
2023-04-14T09:09:11.427Z,595.00
2023-04-14T09:10:11.455Z,595.00
2023-04-14T09:11:11.491Z,592.00
2023-04-14T09:12:11.544Z,599.00
2023-04-14T09:13:10.596Z,610.00
2023-04-14T09:14:11.684Z,611.00
2023-04-14T09:15:11.759Z,609.00
2023-04-14T09:16:11.875Z,625.00
2023-04-14T09:17:12.017Z,629.00
2023-04-14T09:18:12.001Z,629.00
2023-04-14T09:19:10.949Z,626.00
2023-04-14T09:20:39.708Z,627.00
2023-04-14T09:21:30.394Z,628.00
2023-04-14T09:22:12.006Z,629.00
2023-04-14T09:23:11.164Z,631.00
2023-04-14T09:24:12.215Z,635.00
2023-04-14T09:25:11.964Z,644.00
2023-04-14T09:26:11.963Z,649.00
2023-04-14T09:27:11.953Z,651.00
2023-04-14T09:28:11.949Z,653.00
2023-04-14T09:29:10.949Z,651.00
2023-04-14T09:30:11.938Z,641.00
2023-04-14T09:31:12.086Z,643.00
2023-04-14T09:32:10.925Z,647.00
2023-04-14T09:33:11.945Z,648.00
2023-04-14T09:34:10.965Z,643.00
2023-04-14T09:35:11.897Z,651.00
2023-04-14T09:36:11.903Z,672.00
2023-04-14T09:37:11.901Z,670.00
2023-04-14T09:38:11.881Z,692.00
2023-04-14T09:39:10.884Z,681.00
2023-04-14T09:40:11.880Z,652.00
2023-04-14T09:41:11.870Z,655.00
2023-04-14T09:42:11.846Z,659.00
2023-04-14T09:43:11.838Z,659.00
2023-04-14T09:44:11.843Z,697.00
2023-04-14T09:45:10.818Z,684.00
2023-04-14T09:46:11.848Z,663.00
2023-04-14T09:47:12.170Z,660.00
2023-04-14T09:48:11.815Z,660.00
2023-04-14T09:49:11.822Z,661.00
2023-04-14T09:50:11.833Z,645.00
2023-04-14T09:51:11.807Z,643.00
2023-04-14T09:52:11.788Z,637.00
2023-04-14T09:53:10.795Z,642.00
2023-04-14T09:54:11.824Z,656.00
2023-04-14T09:55:11.917Z,665.00
2023-04-14T09:56:10.987Z,667.00
2023-04-14T09:57:11.191Z,659.00
2023-04-14T09:58:12.072Z,668.00
2023-04-14T09:59:12.129Z,666.00
2023-04-14T10:00:12.148Z,680.00
2023-04-14T10:01:12.202Z,695.00
2023-04-14T10:02:11.303Z,676.00
2023-04-14T10:03:12.297Z,687.00
2023-04-14T10:04:12.299Z,698.00
2023-04-14T10:05:12.341Z,665.00
2023-04-14T10:06:11.325Z,667.00
2023-04-14T10:07:11.397Z,661.00
2023-04-14T10:08:12.431Z,649.00
2023-04-14T10:09:12.484Z,642.00
2023-04-14T10:10:12.531Z,639.00
2023-04-14T10:11:11.602Z,643.00
2023-04-14T10:12:12.798Z,642.00
2023-04-14T10:13:12.716Z,638.00
2023-04-14T10:14:12.793Z,625.00
2023-04-14T10:15:11.816Z,622.00
2023-04-14T10:16:11.891Z,629.00
2023-04-14T10:17:12.888Z,637.00
2023-04-14T10:18:12.991Z,626.00
2023-04-14T10:19:13.022Z,626.00
2023-04-14T10:20:12.069Z,613.00
2023-04-14T10:21:12.155Z,605.00
2023-04-14T10:22:12.189Z,607.00
2023-04-14T10:23:12.196Z,606.00
2023-04-14T10:24:12.202Z,608.00
2023-04-14T10:25:12.240Z,604.00
2023-04-14T10:26:12.256Z,609.00
2023-04-14T10:27:12.291Z,608.00
2023-04-14T10:28:13.317Z,597.00
2023-04-14T10:29:12.323Z,592.00
2023-04-14T10:30:13.331Z,596.00
2023-04-14T10:31:13.380Z,598.00
2023-04-14T10:32:12.373Z,590.00
2023-04-14T10:33:13.391Z,594.00
2023-04-14T10:34:12.384Z,592.00
2023-04-14T10:35:13.392Z,593.00
2023-04-14T10:36:12.405Z,590.00
2023-04-14T10:37:13.469Z,592.00
2023-04-14T10:38:13.409Z,587.00
2023-04-14T10:39:13.404Z,576.00
2023-04-14T10:40:12.419Z,579.00
2023-04-14T10:41:12.460Z,567.00
2023-04-14T10:42:13.702Z,581.00
2023-04-14T10:43:13.456Z,583.00
2023-04-14T10:44:13.514Z,590.00
2023-04-14T10:45:13.500Z,585.00
2023-04-14T10:46:13.553Z,589.00
2023-04-14T10:47:13.581Z,580.00
2023-04-14T10:48:13.573Z,580.00
2023-04-14T10:49:13.604Z,580.00
2023-04-14T10:50:13.635Z,571.00
2023-04-14T10:51:13.650Z,574.00
2023-04-14T10:52:12.771Z,583.00
2023-04-14T10:53:12.754Z,579.00
2023-04-14T10:54:13.756Z,570.00
2023-04-14T10:55:13.784Z,585.00
2023-04-14T10:56:13.842Z,599.00
2023-04-14T10:57:13.874Z,597.00
2023-04-14T10:58:13.913Z,593.00
2023-04-14T10:59:13.973Z,589.00
2023-04-14T11:00:13.001Z,578.00
2023-04-14T11:01:14.094Z,572.00
2023-04-14T11:02:14.198Z,564.00
2023-04-14T11:03:13.574Z,552.00
2023-04-14T11:04:14.358Z,553.00
2023-04-14T11:05:14.258Z,560.00
2023-04-14T11:06:14.329Z,565.00
2023-04-14T11:07:13.367Z,599.00
2023-04-14T11:08:13.408Z,608.00
2023-04-14T11:09:14.476Z,604.00
2023-04-14T11:10:14.510Z,607.00
2023-04-14T11:11:14.555Z,614.00
2023-04-14T11:12:14.608Z,619.00
2023-04-14T11:13:14.228Z,612.00
2023-04-14T11:14:14.675Z,601.00
2023-04-14T11:15:14.726Z,617.00
2023-04-14T11:16:14.890Z,607.00
2023-04-14T11:17:13.880Z,611.00
2023-04-14T11:18:14.950Z,623.00
2023-04-14T11:19:14.974Z,622.00
2023-04-14T11:20:15.028Z,628.00
2023-04-14T11:21:15.083Z,619.00
2023-04-14T11:22:14.146Z,642.00
2023-04-14T11:23:15.200Z,642.00
2023-04-14T11:24:14.267Z,654.00
2023-04-14T11:25:14.424Z,642.00
2023-04-14T11:26:15.399Z,633.00
2023-04-14T11:27:14.484Z,641.00
2023-04-14T11:28:15.506Z,629.00
2023-04-14T11:29:14.580Z,622.00
2023-04-14T11:30:14.636Z,567.00
2023-04-14T11:31:15.642Z,546.00
2023-04-14T11:32:15.851Z,526.00
2023-04-14T11:33:15.788Z,549.00
2023-04-14T11:34:15.914Z,590.00
2023-04-14T11:35:14.815Z,561.00
2023-04-14T11:36:15.887Z,533.00
2023-04-14T11:37:15.238Z,512.00
2023-04-14T11:38:14.966Z,512.00
2023-04-14T11:39:16.031Z,500.00
2023-04-14T11:40:16.142Z,500.00
2023-04-14T11:41:16.083Z,507.00
2023-04-14T11:42:16.217Z,500.00
2023-04-14T11:43:15.178Z,500.00
2023-04-14T11:44:15.208Z,508.00
2023-04-14T11:45:16.235Z,508.00
2023-04-14T11:46:16.285Z,500.00
2023-04-14T11:47:15.279Z,500.00
2023-04-14T11:48:16.293Z,504.00
2023-04-14T11:49:16.321Z,503.00
2023-04-14T11:50:16.370Z,506.00
2023-04-14T11:51:16.379Z,511.00
2023-04-14T11:52:15.401Z,537.00
2023-04-14T11:53:16.447Z,557.00
2023-04-14T11:54:16.548Z,559.00
2023-04-14T11:55:16.526Z,562.00
2023-04-14T11:56:16.581Z,560.00
2023-04-14T11:57:16.558Z,572.00
2023-04-14T11:58:16.569Z,564.00
2023-04-14T11:59:16.601Z,577.00
2023-04-14T12:00:15.677Z,580.00
2023-04-14T12:01:15.591Z,578.00
2023-04-14T12:02:16.683Z,588.00
2023-04-14T12:03:15.835Z,598.00
2023-04-14T12:04:15.767Z,601.00
2023-04-14T12:05:16.600Z,609.00
2023-04-14T12:06:15.626Z,605.00
2023-04-14T12:07:15.624Z,609.00
2023-04-14T12:08:15.630Z,617.00
2023-04-14T12:09:16.620Z,613.00
2023-04-14T12:10:15.706Z,618.00
2023-04-14T12:11:16.644Z,602.00
2023-04-14T12:12:16.928Z,587.00
2023-04-14T12:13:15.704Z,601.00
2023-04-14T12:14:16.751Z,602.00
2023-04-14T12:15:16.801Z,611.00
2023-04-14T12:16:15.905Z,608.00
2023-04-14T12:17:16.946Z,610.00
2023-04-14T12:19:16.005Z,609.00
2023-04-14T12:20:17.111Z,614.00
2023-04-14T12:21:17.119Z,620.00
2023-04-14T12:22:16.185Z,620.00
2023-04-14T12:23:17.196Z,664.00
2023-04-14T12:24:17.265Z,779.00
2023-04-14T12:25:16.293Z,1138.00
2023-04-14T12:26:17.331Z,1597.00
2023-04-14T12:27:16.346Z,2186.00
2023-04-14T12:28:16.373Z,2886.00
2023-04-14T12:29:16.379Z,2759.00
2023-04-14T12:30:17.373Z,2908.00
2023-04-14T12:31:16.425Z,2951.00
2023-04-14T12:32:17.398Z,3015.00
2023-04-14T12:33:17.383Z,3090.00
2023-04-14T12:34:17.405Z,3066.00
2023-04-14T12:35:16.417Z,3057.00
2023-04-14T12:36:17.396Z,3024.00
2023-04-14T12:37:16.411Z,2997.00
2023-04-14T12:38:16.438Z,2958.00
2023-04-14T12:39:16.463Z,2983.00
2023-04-14T12:40:17.437Z,2969.00
2023-04-14T12:41:16.437Z,2954.00
2023-04-14T12:42:16.445Z,2942.00
2023-04-14T12:43:17.458Z,2920.00
2023-04-14T12:44:17.534Z,2882.00
2023-04-14T12:45:17.494Z,2866.00
2023-04-14T12:46:17.531Z,2859.00
2023-04-14T12:47:16.704Z,2842.00
2023-04-14T12:48:16.596Z,2825.00
2023-04-14T12:49:16.629Z,2827.00
2023-04-14T12:50:17.696Z,2779.00
2023-04-14T12:51:16.734Z,2763.00
2023-04-14T12:52:16.764Z,2740.00
2023-04-14T12:53:17.809Z,2715.00
2023-04-14T12:54:17.845Z,2715.00
2023-04-14T12:55:16.886Z,2694.00
2023-04-14T12:56:17.938Z,2666.00
2023-04-14T12:57:17.979Z,2635.00
2023-04-14T12:58:17.023Z,2622.00
2023-04-14T12:59:18.089Z,2609.00
2023-04-14T13:00:18.184Z,2591.00
2023-04-14T13:01:17.313Z,2569.00
2023-04-14T13:02:18.325Z,2552.00
2023-04-14T13:03:18.463Z,2553.00
2023-04-14T13:04:17.498Z,2535.00
2023-04-14T13:05:17.403Z,2511.00
2023-04-14T13:06:17.484Z,2489.00
2023-04-14T13:07:17.579Z,2472.00
2023-04-14T13:08:17.586Z,2464.00
2023-04-14T13:09:17.655Z,2427.00
2023-04-14T13:10:18.731Z,2438.00
2023-04-14T13:11:17.782Z,2429.00
2023-04-14T13:12:18.862Z,2405.00
2023-04-14T13:13:17.879Z,2373.00
2023-04-14T13:14:18.933Z,2361.00
2023-04-14T13:15:30.954Z,2347.00
2023-04-14T13:16:20.602Z,2347.00
2023-04-14T13:17:18.089Z,2348.00
2023-04-14T13:18:19.073Z,2310.00
2023-04-14T13:19:17.967Z,2289.00
2023-04-14T13:20:17.949Z,2272.00
2023-04-14T13:21:18.961Z,2256.00
2023-04-14T13:22:18.934Z,2249.00
2023-04-14T13:23:18.961Z,2221.00
2023-04-14T13:24:17.943Z,2218.00
2023-04-14T13:25:19.065Z,2214.00
2023-04-14T13:26:17.909Z,2194.00
2023-04-14T13:27:18.904Z,2190.00
2023-04-14T13:28:18.898Z,2172.00
2023-04-14T13:29:18.893Z,2153.00
2023-04-14T13:30:17.904Z,2115.00
2023-04-14T13:31:18.936Z,2116.00
2023-04-14T13:32:18.967Z,2113.00
2023-04-14T13:33:18.876Z,2092.00
2023-04-14T13:34:18.853Z,2097.00
2023-04-14T13:35:17.861Z,2066.00
2023-04-14T13:36:18.849Z,2045.00
2023-04-14T13:37:17.832Z,2038.00
2023-04-14T13:38:17.838Z,2028.00
2023-04-14T13:39:17.814Z,2011.00
2023-04-14T13:40:18.822Z,2006.00
2023-04-14T13:41:18.812Z,1985.00
2023-04-14T13:42:18.821Z,1973.00
2023-04-14T13:43:17.883Z,1961.00
2023-04-14T13:44:18.903Z,1954.00
2023-04-14T13:45:18.953Z,1934.00
2023-04-14T13:46:19.202Z,1928.00
2023-04-14T13:47:18.043Z,1905.00
2023-04-14T13:48:19.120Z,1894.00
2023-04-14T13:49:19.135Z,1876.00
2023-04-14T13:50:19.205Z,1868.00
2023-04-14T13:51:18.251Z,1858.00
2023-04-14T13:52:18.294Z,1854.00
2023-04-14T13:53:19.332Z,1844.00
2023-04-14T13:54:18.383Z,1833.00
2023-04-14T13:55:19.432Z,1819.00
2023-04-14T13:56:19.457Z,1808.00
2023-04-14T13:57:19.520Z,1786.00
2023-04-14T13:58:19.581Z,1771.00
2023-04-14T13:59:19.658Z,1768.00
2023-04-14T14:00:19.704Z,1763.00
2023-04-14T14:01:19.809Z,1744.00
2023-04-14T14:02:18.972Z,1737.00
2023-04-14T14:03:20.006Z,1720.00
2023-04-14T14:04:20.073Z,1715.00
2023-04-14T14:05:20.037Z,1701.00
2023-04-14T14:06:19.101Z,1679.00
2023-04-14T14:07:20.138Z,1662.00
2023-04-14T14:08:19.214Z,1667.00
2023-04-14T14:09:19.264Z,1651.00
2023-04-14T14:10:20.322Z,1619.00
2023-04-14T14:11:19.357Z,1607.00
2023-04-14T14:12:19.395Z,1589.00
2023-04-14T14:13:20.511Z,1574.00
2023-04-14T14:14:20.419Z,1573.00
2023-04-14T14:15:19.438Z,1552.00
2023-04-14T14:16:35.556Z,1559.00
2023-04-14T14:17:20.449Z,1550.00
2023-04-14T14:18:20.412Z,1502.00
2023-04-14T14:19:20.429Z,1486.00
2023-04-14T14:20:20.302Z,1203.00
2023-04-14T14:21:20.395Z,1015.00
2023-04-14T14:22:20.385Z,996.00
2023-04-14T14:23:19.389Z,966.00
2023-04-14T14:24:19.371Z,890.00
2023-04-14T14:25:21.290Z,841.00
2023-04-14T14:26:20.373Z,833.00
2023-04-14T14:27:19.362Z,870.00
2023-04-14T14:28:20.368Z,860.00
2023-04-14T14:29:19.342Z,829.00
2023-04-14T14:30:20.339Z,819.00
2023-04-14T14:31:20.352Z,768.00
2023-04-14T14:32:20.386Z,715.00
2023-04-14T14:33:20.320Z,748.00
2023-04-14T14:34:20.310Z,790.00
2023-04-14T14:35:20.313Z,833.00
2023-04-14T14:36:20.346Z,870.00
2023-04-14T14:37:19.327Z,859.00
2023-04-14T14:38:20.375Z,878.00
2023-04-14T14:39:19.395Z,921.00
2023-04-14T14:40:20.409Z,940.00
2023-04-14T14:41:20.396Z,952.00
2023-04-14T14:42:20.419Z,975.00
2023-04-14T14:43:20.485Z,959.00
2023-04-14T14:44:20.548Z,968.00
2023-04-14T14:45:22.275Z,970.00
2023-04-14T14:46:20.645Z,971.00
2023-04-14T14:47:20.616Z,972.00
2023-04-14T14:48:19.591Z,981.00
2023-04-14T14:49:20.586Z,973.00
2023-04-14T14:50:20.584Z,981.00
2023-04-14T14:51:20.574Z,988.00
2023-04-14T14:52:20.604Z,971.00
2023-04-14T14:53:20.513Z,1005.00
2023-04-14T14:54:19.497Z,1002.00
2023-04-14T14:55:20.499Z,1011.00
2023-04-14T14:56:20.500Z,999.00
2023-04-14T14:57:19.489Z,1022.00
2023-04-14T14:58:20.468Z,1011.00
2023-04-14T14:59:20.475Z,1048.00
2023-04-14T15:00:20.456Z,1021.00
2023-04-14T15:01:19.465Z,1028.00
2023-04-14T15:02:19.530Z,1032.00
2023-04-14T15:03:19.925Z,1044.00
2023-04-14T15:04:19.522Z,1037.00
2023-04-14T15:05:19.425Z,1038.00
2023-04-14T15:06:19.420Z,1045.00
2023-04-14T15:07:19.405Z,1053.00
2023-04-14T15:08:19.435Z,1053.00
2023-04-14T15:09:20.396Z,1049.00
2023-04-14T15:10:19.402Z,1056.00
2023-04-14T15:11:20.399Z,1048.00
2023-04-14T15:12:19.420Z,1057.00
2023-04-14T15:13:20.388Z,1057.00
2023-04-14T15:14:20.381Z,1059.00
2023-04-14T15:15:20.397Z,1059.00
2023-04-14T15:16:20.464Z,1055.00
2023-04-14T15:17:20.374Z,1053.00
2023-04-14T15:18:19.374Z,1059.00
2023-04-14T15:19:19.379Z,1064.00
2023-04-14T15:20:19.431Z,1057.00
2023-04-14T15:21:20.447Z,1064.00
2023-04-14T15:22:20.486Z,1078.00
2023-04-14T15:23:19.514Z,1066.00
2023-04-14T15:24:20.574Z,1065.00
2023-04-14T15:25:20.584Z,1064.00
2023-04-14T15:26:20.608Z,1063.00
2023-04-14T15:27:19.653Z,1059.00
2023-04-14T15:28:20.688Z,1056.00
2023-04-14T15:29:20.709Z,1061.00
